createdAt,value
2023-02-18T00:01:48.283Z,22.20
2023-02-18T00:04:17.315Z,19.50
2023-02-18T00:06:46.554Z,16.37
2023-02-18T00:09:15.700Z,19.23
2023-02-18T00:11:46.132Z,22.30
2023-02-18T00:14:17.171Z,23.60
2023-02-18T00:16:47.209Z,21.37
2023-02-18T00:19:18.916Z,25.17
2023-02-18T00:21:48.315Z,17.03
2023-02-18T00:24:17.967Z,20.80
2023-02-18T00:26:50.962Z,25.53
2023-02-18T00:29:20.414Z,16.17
2023-02-18T00:31:50.659Z,22.73
2023-02-18T00:34:19.750Z,26.20
2023-02-18T00:36:48.828Z,20.27
2023-02-18T00:39:18.041Z,29.30
2023-02-18T00:41:48.522Z,19.50
2023-02-18T00:44:17.624Z,27.13
2023-02-18T00:46:48.146Z,13.27
2023-02-18T00:49:17.292Z,14.00
2023-02-18T00:51:46.396Z,15.10
2023-02-18T00:54:15.480Z,16.47
2023-02-18T00:56:44.569Z,16.03
2023-02-18T00:59:15.139Z,30.07
2023-02-18T01:01:44.260Z,15.17
2023-02-18T01:04:13.357Z,12.63
2023-02-18T01:06:42.401Z,13.90
2023-02-18T01:09:12.006Z,16.87
2023-02-18T01:11:41.077Z,23.67
2023-02-18T01:14:10.200Z,21.23
2023-02-18T01:16:40.652Z,18.10
2023-02-18T01:19:10.834Z,15.70
2023-02-18T01:21:40.868Z,15.53
2023-02-18T01:24:10.475Z,13.23
2023-02-18T01:26:39.597Z,19.37
2023-02-18T01:29:08.635Z,9.97
2023-02-18T01:31:39.187Z,15.27
2023-02-18T01:34:08.286Z,18.37
2023-02-18T01:36:37.401Z,21.03
2023-02-18T01:39:07.275Z,22.57
2023-02-18T01:41:36.404Z,24.37
2023-02-18T01:44:17.386Z,16.00
2023-02-18T01:46:50.263Z,13.63
2023-02-18T01:49:23.960Z,31.17
2023-02-18T01:51:56.693Z,24.40
2023-02-18T01:54:30.120Z,14.27
2023-02-18T01:57:02.488Z,14.63
2023-02-18T01:59:35.501Z,18.87
2023-02-18T02:02:08.222Z,11.53
2023-02-18T02:04:37.440Z,12.67
2023-02-18T02:07:06.721Z,13.27
2023-02-18T02:09:36.927Z,23.00
2023-02-18T02:12:37.586Z,11.87
2023-02-18T02:15:20.425Z,18.03
2023-02-18T02:18:01.775Z,9.53
2023-02-18T02:21:05.430Z,24.50
2023-02-18T02:24:11.795Z,24.20
2023-02-18T02:27:09.854Z,24.83
2023-02-18T02:30:09.035Z,25.53
2023-02-18T02:33:02.640Z,18.13
2023-02-18T02:35:36.825Z,15.40
2023-02-18T02:38:14.138Z,17.50
2023-02-18T02:40:47.391Z,11.43
2023-02-18T02:43:27.324Z,14.23
2023-02-18T02:46:02.503Z,15.03
2023-02-18T02:48:40.212Z,11.20
2023-02-18T02:51:15.928Z,15.30
2023-02-18T02:53:45.428Z,10.63
2023-02-18T02:56:17.559Z,15.60
2023-02-18T02:58:53.782Z,12.27
2023-02-18T03:01:37.244Z,19.27
2023-02-18T03:04:31.105Z,9.07
2023-02-18T03:07:19.146Z,17.63
2023-02-18T03:10:09.735Z,11.57
2023-02-18T03:12:47.796Z,10.27
2023-02-18T03:15:24.592Z,12.73
2023-02-18T03:17:59.951Z,18.40
2023-02-18T03:20:36.367Z,7.37
2023-02-18T03:23:12.837Z,15.17
2023-02-18T03:25:43.172Z,10.10
2023-02-18T03:28:16.184Z,12.17
2023-02-18T03:30:48.836Z,6.17
2023-02-18T03:33:24.554Z,22.27
2023-02-18T03:35:57.292Z,7.87
2023-02-18T03:38:32.762Z,16.93
2023-02-18T03:41:01.872Z,17.33
2023-02-18T03:43:31.673Z,9.57
2023-02-18T03:46:03.505Z,21.83
2023-02-18T03:48:32.633Z,12.90
2023-02-18T03:51:01.769Z,7.53
2023-02-18T03:53:32.258Z,14.60
2023-02-18T03:56:01.342Z,9.23
2023-02-18T03:58:30.398Z,15.63
2023-02-18T04:00:59.500Z,8.53
2023-02-18T04:03:28.666Z,15.23
2023-02-18T04:05:57.745Z,6.10
2023-02-18T04:08:26.885Z,12.53
2023-02-18T04:10:57.572Z,10.77
2023-02-18T04:13:26.660Z,11.33
2023-02-18T04:15:55.814Z,10.53
2023-02-18T04:18:25.487Z,5.77
2023-02-18T04:20:54.595Z,9.83
2023-02-18T04:23:24.087Z,9.57
2023-02-18T04:25:53.408Z,8.87
2023-02-18T04:28:23.960Z,11.07
2023-02-18T04:30:53.203Z,5.97
2023-02-18T04:33:22.309Z,14.10
2023-02-18T04:35:51.384Z,8.93
2023-02-18T04:38:20.566Z,14.57
2023-02-18T04:40:49.666Z,18.77
2023-02-18T04:43:18.775Z,4.87
2023-02-18T04:45:49.221Z,7.10
2023-02-18T04:48:18.337Z,11.57
2023-02-18T04:50:47.370Z,11.97
2023-02-18T04:53:16.498Z,9.47
2023-02-18T04:55:50.108Z,10.03
2023-02-18T04:58:19.509Z,7.77
2023-02-18T05:00:50.039Z,11.23
2023-02-18T05:03:19.418Z,7.37
2023-02-18T05:05:48.488Z,11.30
2023-02-18T05:08:18.962Z,12.87
2023-02-18T05:10:48.052Z,8.53
2023-02-18T05:13:17.348Z,8.63
2023-02-18T05:15:46.468Z,12.63
2023-02-18T05:18:16.904Z,4.00
2023-02-18T05:20:45.971Z,8.07
2023-02-18T05:23:15.597Z,4.93
2023-02-18T05:25:44.699Z,6.40
2023-02-18T05:28:13.800Z,12.80
2023-02-18T05:30:42.932Z,5.37
2023-02-18T05:33:11.988Z,5.73
2023-02-18T05:35:42.454Z,7.03
2023-02-18T05:38:11.567Z,5.80
2023-02-18T05:40:41.269Z,7.93
2023-02-18T05:43:10.317Z,10.60
2023-02-18T05:45:39.445Z,4.17
2023-02-18T05:48:08.578Z,4.07
2023-02-18T05:50:37.752Z,5.73
2023-02-18T05:53:08.299Z,10.57
2023-02-18T05:55:42.918Z,8.57
2023-02-18T05:58:12.824Z,10.03
2023-02-18T06:00:41.887Z,5.00
2023-02-18T06:03:10.996Z,4.53
2023-02-18T06:05:40.121Z,15.80
2023-02-18T06:08:10.557Z,3.33
2023-02-18T06:10:41.184Z,6.27
2023-02-18T06:13:10.264Z,18.17
2023-02-18T06:15:39.887Z,6.67
2023-02-18T06:18:08.979Z,5.50
2023-02-18T06:20:38.051Z,4.50
2023-02-18T06:23:07.683Z,8.43
2023-02-18T06:25:38.301Z,7.03
2023-02-18T06:28:07.417Z,5.10
2023-02-18T06:30:37.015Z,6.50
2023-02-18T06:33:06.435Z,2.40
2023-02-18T06:35:36.077Z,12.27
2023-02-18T06:38:05.717Z,7.93
2023-02-18T06:40:35.322Z,7.20
2023-02-18T06:43:06.397Z,6.53
2023-02-18T06:45:36.107Z,6.53
2023-02-18T06:48:05.639Z,8.53
2023-02-18T06:50:34.994Z,7.80
2023-02-18T06:53:04.092Z,8.53
2023-02-18T06:55:33.197Z,8.47
2023-02-18T06:58:02.258Z,5.87
2023-02-18T07:00:33.070Z,9.57
2023-02-18T07:03:02.297Z,3.10
2023-02-18T07:05:31.479Z,1.60
2023-02-18T07:08:00.544Z,4.03
2023-02-18T07:10:29.673Z,5.13
2023-02-18T07:12:58.726Z,5.53
2023-02-18T07:15:28.016Z,3.10
2023-02-18T07:17:58.715Z,2.10
2023-02-18T07:20:28.085Z,5.73
2023-02-18T07:22:57.202Z,4.53
2023-02-18T07:25:26.738Z,6.40
2023-02-18T07:27:55.829Z,8.33
2023-02-18T07:30:25.089Z,5.17
2023-02-18T07:32:54.190Z,1.43
2023-02-18T07:35:24.729Z,3.93
2023-02-18T07:37:53.832Z,6.50
2023-02-18T07:40:23.700Z,3.23
2023-02-18T07:42:52.880Z,9.70
2023-02-18T07:45:21.972Z,5.10
2023-02-18T07:47:51.061Z,4.37
2023-02-18T07:50:20.307Z,7.67
2023-02-18T07:52:50.812Z,5.73
2023-02-18T07:55:20.008Z,4.53
2023-02-18T07:58:02.278Z,3.60
2023-02-18T08:00:31.465Z,6.33
2023-02-18T08:03:00.512Z,11.23
2023-02-18T08:05:29.572Z,7.57
2023-02-18T08:08:00.024Z,3.63
2023-02-18T08:10:29.207Z,4.57
2023-02-18T08:12:58.345Z,5.40
2023-02-18T08:15:27.366Z,6.00
2023-02-18T08:17:56.492Z,4.73
2023-02-18T08:20:25.584Z,6.43
2023-02-18T08:22:54.655Z,5.03
2023-02-18T08:25:29.814Z,6.00
2023-02-18T08:27:59.737Z,7.50
2023-02-18T08:30:29.156Z,3.90
2023-02-18T08:32:58.749Z,10.27
2023-02-18T08:35:27.878Z,2.23
2023-02-18T08:37:57.803Z,4.37
2023-02-18T08:40:29.085Z,4.77
2023-02-18T08:42:58.231Z,2.10
2023-02-18T08:45:27.557Z,5.47
2023-02-18T08:48:16.306Z,8.60
2023-02-18T08:50:45.752Z,7.37
2023-02-18T08:53:14.902Z,16.97
2023-02-18T08:55:45.606Z,16.97
2023-02-18T08:58:15.033Z,14.50
2023-02-18T09:00:45.124Z,10.63
2023-02-18T09:03:15.350Z,9.63
2023-02-18T09:05:44.465Z,7.57
2023-02-18T09:08:13.493Z,8.93
2023-02-18T09:10:46.265Z,7.20
2023-02-18T09:13:15.421Z,6.73
2023-02-18T09:15:44.568Z,6.23
2023-02-18T09:18:13.660Z,7.63
2023-02-18T09:20:42.780Z,9.70
2023-02-18T09:23:11.834Z,7.00
2023-02-18T09:25:41.655Z,8.00
2023-02-18T09:28:12.099Z,4.13
2023-02-18T09:30:41.343Z,4.87
2023-02-18T09:33:10.474Z,3.33
2023-02-18T09:35:41.564Z,8.60
2023-02-18T09:38:12.096Z,3.73
2023-02-18T09:40:45.309Z,4.17
2023-02-18T09:43:23.554Z,4.97
2023-02-18T09:45:54.684Z,6.63
2023-02-18T09:48:29.621Z,5.70
2023-02-18T09:50:59.211Z,5.80
2023-02-18T09:53:28.859Z,7.03
2023-02-18T09:55:59.950Z,7.63
2023-02-18T09:58:33.711Z,5.93
2023-02-18T10:01:12.367Z,6.97
2023-02-18T10:03:43.790Z,5.20
2023-02-18T10:06:18.751Z,5.70
2023-02-18T10:08:50.289Z,4.53
2023-02-18T10:11:25.622Z,2.20
2023-02-18T10:13:56.420Z,4.57
2023-02-18T10:16:26.747Z,4.27
2023-02-18T10:18:58.607Z,5.17
2023-02-18T10:21:31.402Z,4.50
2023-02-18T10:24:04.842Z,7.53
2023-02-18T10:26:37.087Z,5.60
2023-02-18T10:29:15.183Z,8.70
2023-02-18T10:31:48.129Z,3.90
2023-02-18T10:34:31.753Z,5.23
2023-02-18T10:37:08.567Z,5.90
2023-02-18T10:39:57.113Z,7.47
2023-02-18T10:42:37.603Z,7.07
2023-02-18T10:45:19.831Z,6.53
2023-02-18T10:47:59.488Z,5.07
2023-02-18T10:50:32.876Z,4.63
2023-02-18T10:53:11.771Z,4.20
2023-02-18T10:55:43.721Z,5.17
2023-02-18T10:58:29.160Z,4.87
2023-02-18T11:01:01.576Z,6.40
2023-02-18T11:03:42.668Z,5.67
2023-02-18T11:06:22.039Z,5.63
2023-02-18T11:08:51.801Z,7.63
2023-02-18T11:11:26.422Z,4.30
2023-02-18T11:13:57.380Z,6.03
2023-02-18T11:16:40.015Z,5.07
2023-02-18T11:19:34.075Z,5.47
2023-02-18T11:22:13.681Z,5.87
2023-02-18T11:24:48.140Z,4.40
2023-02-18T11:27:24.190Z,5.17
2023-02-18T11:29:56.114Z,4.60
2023-02-18T11:32:29.997Z,7.33
2023-02-18T11:34:59.328Z,7.30
2023-02-18T11:37:28.397Z,4.43
2023-02-18T11:39:58.132Z,13.17
2023-02-18T11:42:28.398Z,8.23
2023-02-18T11:44:59.627Z,3.90
2023-02-18T11:47:35.518Z,8.50
2023-02-18T11:50:17.686Z,5.00
2023-02-18T11:52:48.707Z,8.73
2023-02-18T11:55:20.980Z,5.77
2023-02-18T11:57:56.032Z,5.17
2023-02-18T12:00:35.370Z,6.50
2023-02-18T12:03:15.042Z,10.63
2023-02-18T12:05:45.961Z,5.93
2023-02-18T12:08:20.249Z,4.03
2023-02-18T12:10:52.364Z,4.37
2023-02-18T12:13:27.213Z,4.40
2023-02-18T12:16:10.320Z,3.37
2023-02-18T12:18:58.627Z,2.63
2023-02-18T12:21:54.846Z,2.10
2023-02-18T12:24:45.438Z,2.30
2023-02-18T12:27:21.655Z,1.87
2023-02-18T12:30:29.266Z,1.60
2023-02-18T12:33:07.934Z,1.13
2023-02-18T12:35:53.001Z,0.57
2023-02-18T12:38:57.872Z,5.10
2023-02-18T12:41:53.875Z,5.73
2023-02-18T12:44:45.214Z,5.17
2023-02-18T12:47:51.993Z,4.83
2023-02-18T12:50:51.188Z,4.10
2023-02-18T12:53:33.710Z,6.80
2023-02-18T12:56:33.487Z,7.40
2023-02-18T12:59:13.412Z,5.30
2023-02-18T13:01:54.490Z,6.07
2023-02-18T13:04:37.439Z,8.80
2023-02-18T13:07:54.448Z,6.30
2023-02-18T13:10:43.391Z,3.13
2023-02-18T13:13:17.555Z,7.87
2023-02-18T13:15:54.098Z,7.23
2023-02-18T13:18:27.629Z,8.77
2023-02-18T13:21:00.193Z,11.53
2023-02-18T13:23:32.495Z,3.27
2023-02-18T13:26:05.991Z,2.10
2023-02-18T13:28:44.956Z,1.37
2023-02-18T13:31:32.505Z,0.50
2023-02-18T13:34:11.882Z,0.63
2023-02-18T13:36:51.833Z,0.80
2023-02-18T13:39:24.415Z,1.50
2023-02-18T13:42:21.833Z,0.50
2023-02-18T13:45:26.168Z,2.03
2023-02-18T13:47:56.226Z,0.93
2023-02-18T13:50:32.264Z,1.33
2023-02-18T13:53:26.552Z,0.60
2023-02-18T13:56:10.551Z,0.77
2023-02-18T13:58:50.011Z,0.77
2023-02-18T14:01:37.424Z,2.37
2023-02-18T14:04:37.403Z,0.87
2023-02-18T14:07:39.200Z,1.30
2023-02-18T14:10:25.202Z,1.63
2023-02-18T14:13:18.922Z,0.97
2023-02-18T14:16:01.934Z,1.60
2023-02-18T14:18:50.479Z,1.97
2023-02-18T14:21:38.700Z,2.60
2023-02-18T14:24:10.546Z,2.40
2023-02-18T14:26:45.707Z,1.23
2023-02-18T14:29:21.802Z,1.37
2023-02-18T14:31:58.632Z,1.27
2023-02-18T14:35:09.742Z,1.33
2023-02-18T14:38:03.661Z,0.80
2023-02-18T14:41:03.055Z,0.77
2023-02-18T14:44:01.972Z,1.80
2023-02-18T14:46:44.537Z,0.70
2023-02-18T14:49:38.395Z,0.60
2023-02-18T14:52:13.665Z,0.73
2023-02-18T14:54:43.230Z,0.57
2023-02-18T14:57:18.290Z,0.50
2023-02-18T14:59:48.480Z,0.40
2023-02-18T15:02:21.919Z,1.30
2023-02-18T15:04:52.330Z,1.07
2023-02-18T15:07:22.755Z,0.63
2023-02-18T15:09:55.692Z,0.40
2023-02-18T15:12:26.434Z,0.50
2023-02-18T15:15:06.462Z,0.60
2023-02-18T15:17:35.610Z,1.13
2023-02-18T15:20:08.980Z,0.80
2023-02-18T15:22:38.431Z,0.83
2023-02-18T15:25:08.605Z,1.23
2023-02-18T15:27:44.281Z,1.67
2023-02-18T15:30:22.977Z,2.20
2023-02-18T15:32:53.811Z,16.60
2023-02-18T15:35:29.202Z,2.73
2023-02-18T15:38:00.022Z,2.07
2023-02-18T15:40:31.979Z,1.27
2023-02-18T15:43:05.043Z,0.97
2023-02-18T15:45:36.983Z,2.10
2023-02-18T15:48:07.180Z,0.70
2023-02-18T15:50:46.748Z,1.17
2023-02-18T15:53:17.951Z,1.60
2023-02-18T15:55:50.377Z,1.97
2023-02-18T15:58:23.432Z,0.60
2023-02-18T16:00:55.324Z,1.30
2023-02-18T16:03:26.133Z,10.33
2023-02-18T16:06:19.588Z,1.50
2023-02-18T16:08:59.037Z,4.13
2023-02-18T16:11:32.218Z,2.03
2023-02-18T16:14:02.849Z,3.63
2023-02-18T16:16:34.479Z,2.57
2023-02-18T16:19:04.502Z,1.93
2023-02-18T16:21:39.864Z,1.67
2023-02-18T16:24:26.356Z,2.83
2023-02-18T16:26:57.916Z,2.53
2023-02-18T16:29:35.032Z,4.20
2023-02-18T16:32:04.685Z,4.80
2023-02-18T16:34:35.715Z,4.73
2023-02-18T16:37:23.713Z,5.00
2023-02-18T16:39:55.216Z,4.00
2023-02-18T16:42:24.520Z,8.13
2023-02-18T16:44:53.590Z,3.90
2023-02-18T16:47:22.974Z,7.53
2023-02-18T16:49:53.123Z,3.90
2023-02-18T16:52:23.581Z,3.60
2023-02-18T16:54:54.389Z,2.87
2023-02-18T16:57:23.589Z,3.23
2023-02-18T16:59:52.648Z,3.17
2023-02-18T17:02:23.384Z,7.80
2023-02-18T17:04:57.373Z,4.07
2023-02-18T17:07:27.942Z,2.40
2023-02-18T17:09:57.096Z,3.43
2023-02-18T17:12:26.221Z,3.50
2023-02-18T17:14:55.292Z,3.07
2023-02-18T17:17:24.433Z,4.07
2023-02-18T17:19:53.484Z,3.00
2023-02-18T17:22:22.527Z,2.40
2023-02-18T17:24:52.995Z,3.47
2023-02-18T17:27:22.279Z,6.70
2023-02-18T17:29:51.339Z,3.13
2023-02-18T17:32:20.615Z,4.17
2023-02-18T17:34:50.303Z,3.07
2023-02-18T17:37:19.383Z,4.77
2023-02-18T17:39:49.007Z,8.67
2023-02-18T17:42:21.094Z,10.47
2023-02-18T17:44:50.140Z,8.73
2023-02-18T17:47:19.220Z,6.47
2023-02-18T17:49:48.299Z,5.93
2023-02-18T17:52:30.675Z,6.70
2023-02-18T17:54:59.774Z,7.93
2023-02-18T17:57:30.259Z,7.80
2023-02-18T17:59:59.337Z,6.43
2023-02-18T18:02:29.801Z,6.27
2023-02-18T18:04:59.144Z,7.53
2023-02-18T18:07:28.428Z,6.83
2023-02-18T18:09:57.685Z,6.73
2023-02-18T18:12:27.101Z,7.60
2023-02-18T18:14:57.742Z,7.27
2023-02-18T18:17:27.185Z,6.73
2023-02-18T18:19:56.485Z,6.73
2023-02-18T18:22:29.187Z,6.97
2023-02-18T18:24:58.434Z,6.40
2023-02-18T18:27:27.807Z,6.90
2023-02-18T18:29:59.054Z,8.77
2023-02-18T18:32:28.137Z,7.67
2023-02-18T18:34:57.269Z,7.20
2023-02-18T18:37:26.420Z,10.37
2023-02-18T18:39:55.511Z,10.80
2023-02-18T18:42:24.768Z,11.53
2023-02-18T18:44:53.920Z,8.77
2023-02-18T18:47:27.538Z,9.23
2023-02-18T18:49:56.885Z,11.60
2023-02-18T18:52:26.118Z,10.80
2023-02-18T18:54:55.420Z,11.07
2023-02-18T18:57:24.577Z,9.53
2023-02-18T18:59:53.702Z,10.40
2023-02-18T19:02:23.194Z,10.33
2023-02-18T19:04:53.611Z,14.00
2023-02-18T19:07:22.834Z,12.07
2023-02-18T19:09:52.130Z,11.00
2023-02-18T19:12:21.419Z,12.70
2023-02-18T19:14:50.761Z,11.73
2023-02-18T19:17:20.081Z,14.37
2023-02-18T19:19:49.267Z,12.93
2023-02-18T19:22:21.494Z,11.97
2023-02-18T19:24:50.880Z,13.63
2023-02-18T19:27:20.192Z,12.53
2023-02-18T19:29:50.761Z,17.43
2023-02-18T19:32:19.976Z,12.27
2023-02-18T19:34:49.301Z,12.77
2023-02-18T19:37:23.474Z,11.17
2023-02-18T19:39:52.554Z,11.07
2023-02-18T19:42:24.430Z,10.23
2023-02-18T19:44:55.753Z,12.10
2023-02-18T19:47:26.246Z,15.20
2023-02-18T19:49:55.374Z,12.17
2023-02-18T19:52:26.382Z,13.27
2023-02-18T19:54:56.034Z,12.60
2023-02-18T19:57:25.400Z,11.67
2023-02-18T19:59:54.892Z,11.50
2023-02-18T20:02:26.527Z,10.77
2023-02-18T20:04:56.314Z,11.23
2023-02-18T20:07:27.256Z,11.97
2023-02-18T20:09:56.716Z,8.97
2023-02-18T20:12:26.288Z,10.47
2023-02-18T20:14:55.698Z,9.30
2023-02-18T20:17:25.001Z,7.43
2023-02-18T20:19:54.129Z,7.90
2023-02-18T20:22:23.541Z,5.93
2023-02-18T20:24:54.108Z,6.97
2023-02-18T20:27:23.417Z,7.20
2023-02-18T20:29:52.764Z,5.90
2023-02-18T20:32:22.267Z,5.97
2023-02-18T20:34:51.516Z,6.63
2023-02-18T20:37:23.101Z,43.93
2023-02-18T20:39:53.682Z,22.23
2023-02-18T20:42:25.957Z,7.33
2023-02-18T20:44:55.031Z,6.73
2023-02-18T20:47:24.214Z,5.73
2023-02-18T20:49:56.390Z,5.73
2023-02-18T20:52:25.617Z,9.63
2023-02-18T20:54:56.208Z,7.93
2023-02-18T20:57:25.356Z,9.97
2023-02-18T20:59:54.772Z,10.07
2023-02-18T21:02:23.976Z,11.37
2023-02-18T21:04:53.144Z,11.47
2023-02-18T21:07:22.848Z,10.83
2023-02-18T21:09:52.168Z,9.73
2023-02-18T21:12:22.774Z,11.30
2023-02-18T21:14:52.089Z,12.53
2023-02-18T21:17:22.131Z,10.83
2023-02-18T21:19:51.515Z,12.47
2023-02-18T21:22:20.938Z,12.60
2023-02-18T21:24:52.234Z,15.33
2023-02-18T21:27:22.830Z,13.47
2023-02-18T21:29:52.130Z,11.83
2023-02-18T21:32:21.534Z,12.63
2023-02-18T21:34:51.017Z,14.57
2023-02-18T21:37:20.641Z,13.13
2023-02-18T21:39:49.689Z,14.33
2023-02-18T21:42:18.769Z,12.10
2023-02-18T21:44:50.350Z,13.70
2023-02-18T21:47:21.150Z,12.73
2023-02-18T21:49:50.389Z,20.93
2023-02-18T21:52:21.645Z,19.97
2023-02-18T21:54:53.789Z,12.07
2023-02-18T21:57:23.278Z,10.60
2023-02-18T21:59:53.883Z,14.30
2023-02-18T22:02:29.004Z,14.10
2023-02-18T22:04:58.535Z,11.40
2023-02-18T22:07:28.863Z,10.37
2023-02-18T22:09:58.001Z,10.50
2023-02-18T22:12:27.907Z,16.03
2023-02-18T22:14:58.432Z,15.80
2023-02-18T22:17:29.711Z,11.20
2023-02-18T22:19:58.820Z,16.80
2023-02-18T22:22:28.274Z,13.53
2023-02-18T22:24:57.710Z,13.57
2023-02-18T22:27:27.448Z,24.47
2023-02-18T22:29:58.157Z,21.63
2023-02-18T22:32:27.467Z,11.30
2023-02-18T22:34:56.774Z,10.00
2023-02-18T22:37:25.981Z,9.40
2023-02-18T22:39:55.115Z,9.87
2023-02-18T22:42:24.467Z,11.37
2023-02-18T22:44:53.681Z,11.80
2023-02-18T22:47:24.241Z,8.50
2023-02-18T22:49:53.470Z,10.23
2023-02-18T22:52:22.821Z,13.77
2023-02-18T22:54:52.975Z,10.87
2023-02-18T22:57:26.133Z,19.07
2023-02-18T22:59:55.525Z,8.97
2023-02-18T23:02:27.398Z,8.97
2023-02-18T23:04:56.480Z,12.33
2023-02-18T23:07:26.050Z,8.57
2023-02-18T23:09:55.273Z,11.70
2023-02-18T23:12:24.688Z,7.77
2023-02-18T23:14:53.722Z,8.63
2023-02-18T23:17:25.286Z,9.97
2023-02-18T23:19:55.583Z,13.70
2023-02-18T23:22:30.241Z,11.53
2023-02-18T23:24:59.349Z,18.20
2023-02-18T23:27:29.293Z,15.23
2023-02-18T23:29:58.576Z,8.63
2023-02-18T23:32:30.609Z,8.57
2023-02-18T23:34:59.655Z,9.17
2023-02-18T23:37:43.962Z,10.17
2023-02-18T23:40:14.730Z,8.87
2023-02-18T23:42:43.878Z,8.17
2023-02-18T23:45:13.025Z,10.27
2023-02-18T23:47:43.497Z,10.63
2023-02-18T23:50:15.897Z,7.33
2023-02-18T23:52:45.081Z,10.93
2023-02-18T23:55:14.149Z,6.23
2023-02-18T23:57:43.431Z,7.47
